AUA3012 LOWW-LPMA
Flight info
| Callsign | AUA3012 |
|---|---|
| Flight time | 4h 11m |
| Altitude | 34000 |
| Route | BUWUT DCT DITIS DCT IPDUL DCT OKG DCT VELIS DCT SWALM DCT TIVUN DCT BREDA/N0455F360 DCT ABNED L980 LOGAN DCT SAM/N0450F350 M195 LORKU DCT EBOMO/N0452F370 DCT COQUE DCT KORUL DCT DEMOS DCT IBIDO DCT MARUM DCT RAKUN |
| Aircraft | A321/M-SDE3FGHIRWY/LB1 |
Departure
| Time | 2026-04-24 21:20 |
|---|---|
| Airport | Vienna International Airport (LOWW) |
Arrival
| Time | 2026-04-25 01:31 |
|---|---|
| Airport | Cristiano Ronaldo International Airport (LPMA) |
| Time | Latitude | Longitude | Altitude | Speed | Heading |
|---|---|---|---|---|---|
| 2026-04-24 20:43 | 48.11610 | 16.56569 | 610 ft | 0 kts | 205° |
| 2026-04-24 21:01 | 48.11610 | 16.56568 | 609 ft | 0 kts | 207° |
| 2026-04-24 21:14 | 48.11606 | 16.56565 | 609 ft | 3 kts | 207° |
| 2026-04-24 21:14 | 48.11564 | 16.56538 | 609 ft | 7 kts | 193° |
| 2026-04-24 21:14 | 48.11532 | 16.56569 | 616 ft | 6 kts | 126° |
| 2026-04-24 21:14 | 48.11470 | 16.56602 | 620 ft | 10 kts | 182° |
| 2026-04-24 21:15 | 48.11423 | 16.56629 | 612 ft | 7 kts | 134° |
| 2026-04-24 21:15 | 48.11398 | 16.56696 | 615 ft | 8 kts | 116° |
| 2026-04-24 21:15 | 48.11373 | 16.56771 | 612 ft | 9 kts | 116° |
| 2026-04-24 21:15 | 48.11345 | 16.56859 | 621 ft | 9 kts | 116° |
| 2026-04-24 21:16 | 48.11320 | 16.56935 | 609 ft | 7 kts | 116° |
| 2026-04-24 21:16 | 48.11293 | 16.57018 | 619 ft | 11 kts | 116° |
| 2026-04-24 21:16 | 48.11261 | 16.57118 | 613 ft | 10 kts | 116° |
| 2026-04-24 21:16 | 48.11232 | 16.57205 | 613 ft | 9 kts | 116° |
| 2026-04-24 21:17 | 48.11202 | 16.57295 | 609 ft | 13 kts | 115° |
| 2026-04-24 21:17 | 48.11156 | 16.57438 | 609 ft | 16 kts | 116° |
| 2026-04-24 21:17 | 48.11112 | 16.57572 | 621 ft | 10 kts | 116° |
| 2026-04-24 21:17 | 48.11088 | 16.57627 | 617 ft | 10 kts | 136° |
| 2026-04-24 21:18 | 48.11000 | 16.57617 | 609 ft | 9 kts | 205° |
| 2026-04-24 21:18 | 48.10945 | 16.57575 | 621 ft | 8 kts | 211° |
| 2026-04-24 21:18 | 48.10928 | 16.57506 | 614 ft | 7 kts | 275° |
| 2026-04-24 21:18 | 48.10948 | 16.57430 | 617 ft | 13 kts | 295° |
| 2026-04-24 21:19 | 48.11082 | 16.57019 | 612 ft | 78 kts | 295° |
| 2026-04-24 21:19 | 48.11408 | 16.56017 | 615 ft | 133 kts | 296° |
| 2026-04-24 21:19 | 48.11881 | 16.54566 | 618 ft | 175 kts | 296° |
| 2026-04-24 21:19 | 48.12386 | 16.52887 | 1118 ft | 175 kts | 284° |
| 2026-04-24 21:20 | 48.11243 | 16.49825 | 2135 ft | 193 kts | 216° |
| 2026-04-24 21:20 | 48.10059 | 16.48759 | 2498 ft | 203 kts | 212° |
| 2026-04-24 21:20 | 48.08791 | 16.47712 | 2844 ft | 213 kts | 212° |
| 2026-04-24 21:21 | 48.07623 | 16.46334 | 3194 ft | 217 kts | 232° |
| 2026-04-24 21:21 | 48.06844 | 16.44355 | 3438 ft | 228 kts | 246° |
| 2026-04-24 21:21 | 48.06128 | 16.42124 | 3619 ft | 249 kts | 248° |
| 2026-04-24 21:21 | 48.05390 | 16.39662 | 4027 ft | 265 kts | 249° |
| 2026-04-24 21:22 | 48.04648 | 16.37138 | 4831 ft | 265 kts | 250° |
| 2026-04-24 21:22 | 48.03913 | 16.34627 | 5660 ft | 263 kts | 250° |
| 2026-04-24 21:22 | 48.03390 | 16.32035 | 6419 ft | 260 kts | 266° |
| 2026-04-24 21:22 | 48.03353 | 16.30260 | 6918 ft | 257 kts | 277° |
| 2026-04-24 21:23 | 48.03567 | 16.26697 | 7923 ft | 258 kts | 277° |
| 2026-04-24 21:23 | 48.03645 | 16.24030 | 8662 ft | 256 kts | 275° |
| 2026-04-24 21:23 | 48.03954 | 16.21429 | 9279 ft | 256 kts | 294° |
| 2026-04-24 21:23 | 48.04954 | 16.19234 | 9875 ft | 260 kts | 316° |
| 2026-04-24 21:24 | 48.06358 | 16.17469 | 10375 ft | 268 kts | 320° |
| 2026-04-24 21:24 | 48.07329 | 16.16273 | 10591 ft | 278 kts | 320° |
| 2026-04-24 21:24 | 48.08859 | 16.14377 | 10884 ft | 293 kts | 320° |
| 2026-04-24 21:24 | 48.10475 | 16.12373 | 11039 ft | 311 kts | 320° |
| 2026-04-24 21:25 | 48.12193 | 16.10249 | 11168 ft | 329 kts | 320° |
| 2026-04-24 21:25 | 48.14003 | 16.08009 | 11296 ft | 346 kts | 320° |
| 2026-04-24 21:25 | 48.15893 | 16.05659 | 11550 ft | 357 kts | 320° |
| 2026-04-24 21:25 | 48.18446 | 16.02475 | 12150 ft | 363 kts | 321° |
| 2026-04-24 21:26 | 48.19757 | 16.00832 | 12467 ft | 365 kts | 321° |
| 2026-04-24 21:26 | 48.21719 | 15.98375 | 12947 ft | 368 kts | 321° |
| 2026-04-24 21:26 | 48.23693 | 15.95904 | 13411 ft | 371 kts | 321° |
| 2026-04-24 21:26 | 48.25684 | 15.93412 | 13867 ft | 374 kts | 321° |
| 2026-04-24 21:27 | 48.27683 | 15.90907 | 14302 ft | 376 kts | 321° |
| 2026-04-24 21:27 | 48.29697 | 15.88378 | 14716 ft | 379 kts | 320° |
| 2026-04-24 21:27 | 48.31724 | 15.85833 | 15110 ft | 381 kts | 320° |
| 2026-04-24 21:27 | 48.33760 | 15.83273 | 15500 ft | 382 kts | 320° |
| 2026-04-24 21:28 | 48.35803 | 15.80699 | 15867 ft | 384 kts | 320° |
| 2026-04-24 21:28 | 48.37802 | 15.78016 | 16215 ft | 387 kts | 313° |
| 2026-04-24 21:28 | 48.39303 | 15.74640 | 16560 ft | 392 kts | 296° |
| 2026-04-24 21:28 | 48.40038 | 15.70725 | 16887 ft | 399 kts | 278° |
| 2026-04-24 21:29 | 48.39876 | 15.66474 | 17226 ft | 408 kts | 259° |
| 2026-04-24 21:29 | 48.38784 | 15.62500 | 17558 ft | 418 kts | 242° |
| 2026-04-24 21:29 | 48.37176 | 15.58842 | 17910 ft | 421 kts | 239° |
| 2026-04-24 21:29 | 48.35534 | 15.55178 | 18274 ft | 423 kts | 239° |
| 2026-04-24 21:30 | 48.33905 | 15.51556 | 18629 ft | 425 kts | 239° |
| 2026-04-24 21:30 | 48.32245 | 15.47867 | 19001 ft | 427 kts | 239° |
| 2026-04-24 21:30 | 48.30577 | 15.44155 | 19367 ft | 429 kts | 239° |
| 2026-04-24 21:30 | 48.28904 | 15.40434 | 19732 ft | 431 kts | 239° |
| 2026-04-24 21:31 | 48.27218 | 15.36692 | 20055 ft | 433 kts | 239° |
| 2026-04-24 21:31 | 48.25526 | 15.32942 | 20398 ft | 435 kts | 239° |
| 2026-04-24 21:31 | 48.23826 | 15.29179 | 20740 ft | 437 kts | 239° |
| 2026-04-24 21:31 | 48.22116 | 15.25400 | 21070 ft | 439 kts | 239° |
| 2026-04-24 21:32 | 48.20399 | 15.21601 | 21401 ft | 441 kts | 239° |
| 2026-04-24 21:32 | 48.18676 | 15.17783 | 21729 ft | 443 kts | 239° |
| 2026-04-24 21:32 | 48.16945 | 15.13955 | 22050 ft | 445 kts | 239° |
| 2026-04-24 21:32 | 48.15204 | 15.10111 | 22364 ft | 447 kts | 239° |
| 2026-04-24 21:33 | 48.13455 | 15.06254 | 22680 ft | 449 kts | 239° |
| 2026-04-24 21:33 | 48.11696 | 15.02389 | 22980 ft | 451 kts | 239° |
| 2026-04-24 21:33 | 48.09925 | 14.98510 | 23272 ft | 452 kts | 238° |
| 2026-04-24 21:33 | 48.08143 | 14.94616 | 23557 ft | 455 kts | 238° |
| 2026-04-24 21:34 | 48.06354 | 14.90705 | 23842 ft | 457 kts | 238° |
| 2026-04-24 21:34 | 48.04558 | 14.86776 | 24128 ft | 459 kts | 238° |
| 2026-04-24 21:34 | 48.02755 | 14.82833 | 24401 ft | 460 kts | 238° |
| 2026-04-24 21:34 | 48.00941 | 14.78880 | 24677 ft | 462 kts | 238° |
| 2026-04-24 21:35 | 47.99119 | 14.74918 | 24942 ft | 464 kts | 238° |
| 2026-04-24 21:35 | 47.97288 | 14.70937 | 25160 ft | 466 kts | 238° |
| 2026-04-24 21:35 | 47.95447 | 14.66943 | 25383 ft | 468 kts | 238° |
| 2026-04-24 21:35 | 47.93596 | 14.62946 | 25604 ft | 470 kts | 238° |
| 2026-04-24 21:36 | 47.91732 | 14.58935 | 25833 ft | 471 kts | 238° |
| 2026-04-24 21:36 | 47.89866 | 14.54919 | 26018 ft | 472 kts | 238° |
| 2026-04-24 21:36 | 47.87997 | 14.50890 | 26198 ft | 473 kts | 238° |
| 2026-04-24 21:36 | 47.86124 | 14.46855 | 26364 ft | 474 kts | 237° |
| 2026-04-24 21:37 | 47.84244 | 14.42812 | 26558 ft | 475 kts | 238° |
| 2026-04-24 21:37 | 47.82366 | 14.38783 | 26794 ft | 474 kts | 237° |
| 2026-04-24 21:37 | 47.80487 | 14.34760 | 27040 ft | 473 kts | 237° |
| 2026-04-24 21:37 | 47.78613 | 14.30748 | 27286 ft | 472 kts | 237° |
| 2026-04-24 21:38 | 47.76741 | 14.26750 | 27516 ft | 471 kts | 237° |
| 2026-04-24 21:38 | 47.74865 | 14.22757 | 27733 ft | 470 kts | 237° |
| 2026-04-24 21:38 | 47.72996 | 14.18780 | 27969 ft | 470 kts | 237° |
| 2026-04-24 21:38 | 47.71126 | 14.14802 | 28187 ft | 469 kts | 237° |
| 2026-04-24 21:39 | 47.69260 | 14.10837 | 28388 ft | 469 kts | 237° |
| 2026-04-24 21:39 | 47.67395 | 14.06875 | 28613 ft | 468 kts | 237° |
| 2026-04-24 21:39 | 47.65530 | 14.02920 | 28828 ft | 467 kts | 237° |
| 2026-04-24 21:39 | 47.63664 | 13.98975 | 29048 ft | 467 kts | 237° |
| 2026-04-24 21:40 | 47.61799 | 13.95041 | 29277 ft | 466 kts | 237° |
| 2026-04-24 21:40 | 47.59913 | 13.91063 | 29486 ft | 465 kts | 237° |
| 2026-04-24 21:40 | 47.58051 | 13.87143 | 29661 ft | 465 kts | 237° |
| 2026-04-24 21:40 | 47.56212 | 13.83280 | 29870 ft | 464 kts | 237° |
| 2026-04-24 21:41 | 47.54351 | 13.79376 | 30080 ft | 464 kts | 237° |
| 2026-04-24 21:41 | 47.52491 | 13.75478 | 30280 ft | 464 kts | 237° |
| 2026-04-24 21:41 | 47.50632 | 13.71585 | 30469 ft | 463 kts | 237° |
| 2026-04-24 21:41 | 47.48775 | 13.67692 | 30660 ft | 463 kts | 237° |
| 2026-04-24 21:42 | 47.46920 | 13.63807 | 30846 ft | 463 kts | 237° |
| 2026-04-24 21:42 | 47.45059 | 13.59919 | 31030 ft | 463 kts | 237° |
| 2026-04-24 21:42 | 47.43195 | 13.56040 | 31203 ft | 463 kts | 237° |
| 2026-04-24 21:42 | 47.41327 | 13.52159 | 31342 ft | 464 kts | 237° |
| 2026-04-24 21:43 | 47.39454 | 13.48278 | 31498 ft | 464 kts | 236° |
| 2026-04-24 21:43 | 47.37579 | 13.44397 | 31661 ft | 464 kts | 236° |
| 2026-04-24 21:43 | 47.35703 | 13.40518 | 31854 ft | 464 kts | 236° |
| 2026-04-24 21:43 | 47.33824 | 13.36639 | 32015 ft | 464 kts | 236° |
| 2026-04-24 21:44 | 47.31950 | 13.32771 | 32190 ft | 464 kts | 236° |
| 2026-04-24 21:44 | 47.30075 | 13.28899 | 32384 ft | 464 kts | 236° |
| 2026-04-24 21:44 | 47.28204 | 13.25033 | 32572 ft | 463 kts | 236° |
| 2026-04-24 21:44 | 47.26332 | 13.21172 | 32751 ft | 463 kts | 236° |
| 2026-04-24 21:45 | 47.24457 | 13.17320 | 32933 ft | 463 kts | 236° |
| 2026-04-24 21:45 | 47.22576 | 13.13474 | 33102 ft | 463 kts | 236° |
| 2026-04-24 21:45 | 47.20694 | 13.09634 | 33270 ft | 463 kts | 236° |
| 2026-04-24 21:45 | 47.18813 | 13.05795 | 33430 ft | 462 kts | 236° |
| 2026-04-24 21:46 | 47.16935 | 13.01964 | 33599 ft | 462 kts | 236° |
| 2026-04-24 21:46 | 47.15055 | 12.98130 | 33755 ft | 462 kts | 236° |
| 2026-04-24 21:46 | 47.13155 | 12.94253 | 33935 ft | 461 kts | 236° |
| 2026-04-24 21:46 | 47.11308 | 12.90490 | 34098 ft | 461 kts | 236° |
| 2026-04-24 21:47 | 47.09405 | 12.86622 | 34163 ft | 463 kts | 236° |
| 2026-04-24 21:47 | 47.05614 | 12.78941 | 34165 ft | 465 kts | 236° |
| 2026-04-24 21:48 | 47.01812 | 12.71268 | 34173 ft | 466 kts | 235° |
| 2026-04-24 21:48 | 46.97997 | 12.63594 | 34174 ft | 466 kts | 235° |
| 2026-04-24 21:49 | 46.94202 | 12.55971 | 34175 ft | 466 kts | 235° |
| 2026-04-24 21:49 | 46.90373 | 12.48294 | 34157 ft | 469 kts | 235° |
| 2026-04-24 21:50 | 46.86515 | 12.40585 | 34158 ft | 470 kts | 235° |
| 2026-04-24 21:50 | 46.82642 | 12.32861 | 34171 ft | 472 kts | 235° |
| 2026-04-24 21:50 | 46.80703 | 12.29010 | 34400 ft | 469 kts | 234° |
| 2026-04-24 21:51 | 46.78774 | 12.25183 | 34650 ft | 467 kts | 234° |
| 2026-04-24 21:51 | 46.76864 | 12.21378 | 34896 ft | 464 kts | 235° |
| 2026-04-24 21:51 | 46.74967 | 12.17582 | 35111 ft | 462 kts | 235° |
| 2026-04-24 21:52 | 46.71173 | 12.09975 | 35193 ft | 467 kts | 235° |
| 2026-04-24 21:52 | 46.67314 | 12.02290 | 35193 ft | 472 kts | 234° |
| 2026-04-24 21:53 | 46.63410 | 11.94581 | 35193 ft | 473 kts | 234° |
| 2026-04-24 21:53 | 46.59503 | 11.86876 | 35192 ft | 473 kts | 234° |
| 2026-04-24 21:54 | 46.55598 | 11.79182 | 35193 ft | 473 kts | 234° |
| 2026-04-24 21:54 | 46.51688 | 11.71499 | 35195 ft | 473 kts | 234° |
| 2026-04-24 21:55 | 46.47767 | 11.63830 | 35181 ft | 473 kts | 234° |
| 2026-04-24 21:55 | 46.43848 | 11.56173 | 35169 ft | 473 kts | 234° |
| 2026-04-24 21:56 | 46.39932 | 11.48513 | 35153 ft | 473 kts | 234° |
| 2026-04-24 21:56 | 46.35999 | 11.40879 | 35134 ft | 473 kts | 234° |
| 2026-04-24 21:57 | 46.32062 | 11.33260 | 35120 ft | 472 kts | 234° |
| 2026-04-24 21:57 | 46.28135 | 11.25657 | 35118 ft | 472 kts | 234° |
| 2026-04-24 21:58 | 46.24203 | 11.18072 | 35127 ft | 472 kts | 233° |
| 2026-04-24 21:58 | 46.20267 | 11.10488 | 35165 ft | 471 kts | 233° |
| 2026-04-24 21:59 | 46.16332 | 11.02918 | 35269 ft | 472 kts | 233° |
| 2026-04-24 21:59 | 46.12341 | 10.95285 | 35203 ft | 479 kts | 233° |
| 2026-04-24 22:00 | 46.08313 | 10.87606 | 35212 ft | 483 kts | 233° |
| 2026-04-24 22:00 | 46.04254 | 10.79871 | 35219 ft | 485 kts | 233° |
| 2026-04-24 22:00 | 46.02228 | 10.76019 | 35541 ft | 479 kts | 233° |
| 2026-04-24 22:01 | 46.00228 | 10.72219 | 35914 ft | 473 kts | 233° |
| 2026-04-24 22:01 | 45.98258 | 10.68482 | 36242 ft | 467 kts | 233° |
| 2026-04-24 22:01 | 45.96295 | 10.64771 | 36494 ft | 464 kts | 233° |
| 2026-04-24 22:01 | 45.94349 | 10.61106 | 36745 ft | 460 kts | 233° |
| 2026-04-24 22:02 | 45.92414 | 10.57465 | 36994 ft | 456 kts | 233° |
| 2026-04-24 22:02 | 45.90490 | 10.53846 | 37116 ft | 456 kts | 233° |
| 2026-04-24 22:02 | 45.88564 | 10.50222 | 37138 ft | 458 kts | 233° |
| 2026-04-24 22:03 | 45.84722 | 10.43010 | 36601 ft | 450 kts | 233° |
| 2026-04-24 22:03 | 45.82826 | 10.39459 | 35947 ft | 448 kts | 232° |
| 2026-04-24 22:03 | 45.80930 | 10.35913 | 35335 ft | 447 kts | 232° |
| 2026-04-24 22:03 | 45.79036 | 10.32380 | 35121 ft | 450 kts | 232° |
| 2026-04-24 22:04 | 45.77114 | 10.28800 | 35089 ft | 455 kts | 232° |
| 2026-04-24 22:04 | 45.73216 | 10.21540 | 35076 ft | 464 kts | 232° |
| 2026-04-24 22:05 | 45.69277 | 10.14201 | 35064 ft | 459 kts | 232° |
| 2026-04-24 22:05 | 45.65378 | 10.06965 | 35062 ft | 463 kts | 232° |
| 2026-04-24 22:06 | 45.61412 | 9.99636 | 35055 ft | 469 kts | 232° |
| 2026-04-24 22:06 | 45.58072 | 9.93484 | 35052 ft | 470 kts | 232° |
| 2026-04-24 22:06 | 45.56096 | 9.89850 | 35052 ft | 459 kts | 232° |
| 2026-04-24 22:07 | 45.54149 | 9.86276 | 35054 ft | 455 kts | 232° |
| 2026-04-24 22:07 | 45.50270 | 9.79163 | 35054 ft | 454 kts | 232° |
| 2026-04-24 22:08 | 45.46407 | 9.72065 | 35054 ft | 453 kts | 232° |
| 2026-04-24 22:08 | 45.42536 | 9.64986 | 35052 ft | 453 kts | 232° |
| 2026-04-24 22:09 | 45.38642 | 9.57907 | 35061 ft | 455 kts | 232° |
| 2026-04-24 22:09 | 45.34732 | 9.50802 | 35064 ft | 456 kts | 232° |
| 2026-04-24 22:10 | 45.30817 | 9.43696 | 35066 ft | 457 kts | 231° |
| 2026-04-24 22:10 | 45.26889 | 9.36597 | 35062 ft | 457 kts | 231° |
| 2026-04-24 22:11 | 45.22966 | 9.29527 | 35064 ft | 453 kts | 231° |
| 2026-04-24 22:11 | 45.19078 | 9.22529 | 35070 ft | 454 kts | 231° |
| 2026-04-24 22:12 | 45.15128 | 9.15457 | 35080 ft | 462 kts | 231° |
| 2026-04-24 22:12 | 45.11044 | 9.08363 | 35069 ft | 467 kts | 229° |
| 2026-04-24 22:13 | 45.06714 | 9.01498 | 35081 ft | 467 kts | 227° |
| 2026-04-24 22:13 | 45.02318 | 8.94723 | 35085 ft | 467 kts | 227° |
| 2026-04-24 22:14 | 44.97962 | 8.87900 | 35088 ft | 467 kts | 228° |
| 2026-04-24 22:14 | 44.93641 | 8.81042 | 35101 ft | 468 kts | 228° |
| 2026-04-24 22:15 | 44.89309 | 8.74183 | 35102 ft | 468 kts | 228° |
| 2026-04-24 22:15 | 44.84960 | 8.67342 | 35107 ft | 469 kts | 227° |
| 2026-04-24 22:16 | 44.80597 | 8.60525 | 35113 ft | 469 kts | 227° |
| 2026-04-24 22:16 | 44.76230 | 8.53701 | 35116 ft | 469 kts | 227° |
| 2026-04-24 22:17 | 44.71862 | 8.46884 | 35121 ft | 469 kts | 227° |
| 2026-04-24 22:17 | 44.67497 | 8.40084 | 35120 ft | 469 kts | 227° |
| 2026-04-24 22:18 | 44.63117 | 8.33280 | 35121 ft | 469 kts | 227° |
| 2026-04-24 22:18 | 44.58736 | 8.26490 | 35120 ft | 470 kts | 227° |
| 2026-04-24 22:19 | 44.54345 | 8.19711 | 35119 ft | 470 kts | 227° |
| 2026-04-24 22:19 | 44.49975 | 8.12982 | 35115 ft | 470 kts | 227° |
| 2026-04-24 22:20 | 44.45576 | 8.06218 | 35107 ft | 470 kts | 227° |
| 2026-04-24 22:20 | 44.41171 | 7.99462 | 35100 ft | 470 kts | 227° |
| 2026-04-24 22:21 | 44.36754 | 7.92718 | 35102 ft | 470 kts | 227° |
| 2026-04-24 22:21 | 44.32333 | 7.85986 | 35102 ft | 470 kts | 227° |
| 2026-04-24 22:22 | 44.27911 | 7.79257 | 35103 ft | 470 kts | 227° |
| 2026-04-24 22:22 | 44.23124 | 7.73071 | 35102 ft | 469 kts | 221° |
| 2026-04-24 22:23 | 44.18231 | 7.67057 | 35100 ft | 469 kts | 221° |
| 2026-04-24 22:23 | 44.13482 | 7.60831 | 35099 ft | 470 kts | 229° |
| 2026-04-24 22:24 | 44.09214 | 7.53941 | 35103 ft | 470 kts | 229° |
| 2026-04-24 22:24 | 44.04932 | 7.47090 | 35105 ft | 469 kts | 228° |
| 2026-04-24 22:25 | 44.00627 | 7.40250 | 35083 ft | 471 kts | 228° |
| 2026-04-24 22:25 | 43.96313 | 7.33399 | 35088 ft | 472 kts | 229° |
| 2026-04-24 22:26 | 43.91979 | 7.26518 | 35094 ft | 474 kts | 229° |
| 2026-04-24 22:26 | 43.87630 | 7.19631 | 35097 ft | 475 kts | 228° |
| 2026-04-24 22:27 | 43.83263 | 7.12750 | 35104 ft | 475 kts | 228° |
| 2026-04-24 22:27 | 43.78898 | 7.05874 | 35108 ft | 475 kts | 228° |
| 2026-04-24 22:28 | 43.74531 | 6.99004 | 35111 ft | 476 kts | 229° |
| 2026-04-24 22:28 | 43.71016 | 6.91302 | 35111 ft | 475 kts | 247° |
| 2026-04-24 22:29 | 43.67303 | 6.78631 | 35115 ft | 474 kts | 248° |
| 2026-04-24 22:29 | 43.64804 | 6.70200 | 35115 ft | 474 kts | 248° |
| 2026-04-24 22:30 | 43.62300 | 6.61788 | 35122 ft | 474 kts | 248° |
| 2026-04-24 22:30 | 43.59796 | 6.53380 | 35123 ft | 473 kts | 248° |
| 2026-04-24 22:31 | 43.57291 | 6.44988 | 35128 ft | 473 kts | 247° |
| 2026-04-24 22:31 | 43.54773 | 6.36612 | 35128 ft | 473 kts | 247° |
| 2026-04-24 22:32 | 43.52261 | 6.28244 | 35130 ft | 472 kts | 247° |
| 2026-04-24 22:32 | 43.49752 | 6.19886 | 35130 ft | 472 kts | 247° |
| 2026-04-24 22:33 | 43.47236 | 6.11549 | 35131 ft | 472 kts | 247° |
| 2026-04-24 22:33 | 43.44715 | 6.03258 | 35132 ft | 472 kts | 247° |
| 2026-04-24 22:34 | 43.42164 | 5.94872 | 35141 ft | 472 kts | 247° |
| 2026-04-24 22:34 | 43.39635 | 5.86556 | 35155 ft | 471 kts | 247° |
| 2026-04-24 22:35 | 43.37091 | 5.78263 | 35156 ft | 470 kts | 247° |
| 2026-04-24 22:35 | 43.34542 | 5.69983 | 35153 ft | 470 kts | 247° |
| 2026-04-24 22:36 | 43.31982 | 5.61720 | 35150 ft | 470 kts | 247° |
| 2026-04-24 22:36 | 43.29429 | 5.53460 | 35153 ft | 470 kts | 247° |
| 2026-04-24 22:37 | 43.26878 | 5.45200 | 35153 ft | 470 kts | 247° |
| 2026-04-24 22:37 | 43.24306 | 5.36949 | 35155 ft | 470 kts | 247° |
| 2026-04-24 22:38 | 43.21742 | 5.28759 | 35156 ft | 470 kts | 247° |
| 2026-04-24 22:38 | 43.19165 | 5.20515 | 35158 ft | 471 kts | 247° |
| 2026-04-24 22:39 | 43.16578 | 5.12278 | 35161 ft | 470 kts | 247° |
| 2026-04-24 22:39 | 43.13966 | 5.04004 | 35158 ft | 470 kts | 247° |
| 2026-04-24 22:40 | 43.11388 | 4.95844 | 35158 ft | 470 kts | 247° |
| 2026-04-24 22:40 | 43.08789 | 4.87636 | 35156 ft | 470 kts | 247° |
| 2026-04-24 22:41 | 43.05951 | 4.79595 | 35151 ft | 471 kts | 237° |
| 2026-04-24 22:41 | 43.02443 | 4.73854 | 35151 ft | 471 kts | 222° |
| 2026-04-24 22:42 | 42.96708 | 4.66917 | 35149 ft | 471 kts | 221° |
| 2026-04-24 22:42 | 42.91828 | 4.61021 | 35153 ft | 472 kts | 221° |
| 2026-04-24 22:43 | 42.86901 | 4.55092 | 35155 ft | 473 kts | 221° |
| 2026-04-24 22:43 | 42.81968 | 4.49169 | 35161 ft | 473 kts | 221° |
| 2026-04-24 22:44 | 42.77026 | 4.43242 | 35158 ft | 473 kts | 221° |
| 2026-04-24 22:44 | 42.72086 | 4.37333 | 35158 ft | 473 kts | 221° |
| 2026-04-24 22:45 | 42.67135 | 4.31433 | 35157 ft | 473 kts | 221° |
| 2026-04-24 22:45 | 42.62192 | 4.25541 | 35158 ft | 473 kts | 221° |
| 2026-04-24 22:46 | 42.57244 | 4.19654 | 35157 ft | 473 kts | 221° |
| 2026-04-24 22:46 | 42.52296 | 4.13798 | 35155 ft | 472 kts | 221° |
| 2026-04-24 22:47 | 42.47346 | 4.07944 | 35151 ft | 472 kts | 221° |
| 2026-04-24 22:47 | 42.42401 | 4.02100 | 35148 ft | 472 kts | 221° |
| 2026-04-24 22:48 | 42.37459 | 3.96261 | 35146 ft | 472 kts | 221° |
| 2026-04-24 22:48 | 42.32504 | 3.90443 | 35142 ft | 472 kts | 221° |
| 2026-04-24 22:49 | 42.27547 | 3.84627 | 35138 ft | 472 kts | 223° |
| 2026-04-24 22:49 | 42.23375 | 3.77844 | 35146 ft | 471 kts | 235° |
| 2026-04-24 22:50 | 42.20232 | 3.71850 | 35144 ft | 471 kts | 235° |
| 2026-04-24 22:50 | 42.16441 | 3.64656 | 35138 ft | 471 kts | 235° |
| 2026-04-24 22:51 | 42.12637 | 3.57471 | 35146 ft | 471 kts | 235° |
| 2026-04-24 22:51 | 42.08827 | 3.50293 | 35150 ft | 471 kts | 235° |
| 2026-04-24 22:52 | 42.05018 | 3.43125 | 35150 ft | 471 kts | 235° |
| 2026-04-24 22:52 | 42.01207 | 3.35974 | 35152 ft | 470 kts | 235° |
| 2026-04-24 22:53 | 41.97399 | 3.28828 | 35152 ft | 470 kts | 235° |
| 2026-04-24 22:53 | 41.93591 | 3.21691 | 35153 ft | 470 kts | 235° |
| 2026-04-24 22:54 | 41.89768 | 3.14575 | 35155 ft | 470 kts | 235° |
| 2026-04-24 22:54 | 41.85935 | 3.07480 | 35158 ft | 469 kts | 234° |
| 2026-04-24 22:55 | 41.82116 | 3.00392 | 35158 ft | 469 kts | 235° |
| 2026-04-24 22:55 | 41.78306 | 2.93317 | 35158 ft | 468 kts | 235° |
| 2026-04-24 22:56 | 41.74490 | 2.86257 | 35157 ft | 467 kts | 234° |
| 2026-04-24 22:56 | 41.70673 | 2.79220 | 35159 ft | 467 kts | 234° |
| 2026-04-24 22:57 | 41.66824 | 2.72215 | 35159 ft | 467 kts | 233° |
| 2026-04-24 22:57 | 41.62846 | 2.65362 | 35158 ft | 467 kts | 232° |
| 2026-04-24 22:58 | 41.58812 | 2.58561 | 35162 ft | 466 kts | 232° |
| 2026-04-24 22:58 | 41.54806 | 2.51760 | 35165 ft | 466 kts | 233° |
| 2026-04-24 22:59 | 41.50823 | 2.44938 | 35166 ft | 465 kts | 233° |
| 2026-04-24 23:00 | 41.44846 | 2.34731 | 35170 ft | 465 kts | 232° |
| 2026-04-24 23:00 | 41.40855 | 2.27961 | 35169 ft | 465 kts | 232° |
| 2026-04-24 23:01 | 41.36862 | 2.21194 | 35173 ft | 465 kts | 232° |
| 2026-04-24 23:01 | 41.32934 | 2.14354 | 35171 ft | 464 kts | 238° |
| 2026-04-24 23:02 | 41.30352 | 2.06555 | 35175 ft | 462 kts | 256° |
| 2026-04-24 23:02 | 41.29282 | 1.98151 | 35172 ft | 461 kts | 262° |
| 2026-04-24 23:03 | 41.28310 | 1.89723 | 35171 ft | 461 kts | 261° |
| 2026-04-24 23:03 | 41.27316 | 1.81287 | 35173 ft | 462 kts | 261° |
| 2026-04-24 23:04 | 41.26329 | 1.72867 | 35172 ft | 461 kts | 261° |
| 2026-04-24 23:04 | 41.25340 | 1.64439 | 35172 ft | 461 kts | 261° |
| 2026-04-24 23:05 | 41.24341 | 1.56019 | 35173 ft | 461 kts | 261° |
| 2026-04-24 23:05 | 41.23343 | 1.47599 | 35176 ft | 462 kts | 261° |
| 2026-04-24 23:06 | 41.22336 | 1.39164 | 35181 ft | 462 kts | 261° |
| 2026-04-24 23:06 | 41.21322 | 1.30738 | 35184 ft | 462 kts | 261° |
| 2026-04-24 23:07 | 41.20304 | 1.22313 | 35183 ft | 462 kts | 261° |
| 2026-04-24 23:07 | 41.19273 | 1.13896 | 35180 ft | 462 kts | 261° |
| 2026-04-24 23:08 | 41.18242 | 1.05490 | 35178 ft | 461 kts | 260° |
| 2026-04-24 23:08 | 41.17208 | 0.97097 | 35177 ft | 461 kts | 260° |
| 2026-04-24 23:09 | 41.16163 | 0.88708 | 35176 ft | 460 kts | 260° |
| 2026-04-24 23:09 | 41.15113 | 0.80325 | 35175 ft | 461 kts | 260° |
| 2026-04-24 23:10 | 41.14061 | 0.71996 | 35178 ft | 461 kts | 260° |
| 2026-04-24 23:10 | 41.12994 | 0.63557 | 35173 ft | 461 kts | 260° |
| 2026-04-24 23:11 | 41.11934 | 0.55170 | 35171 ft | 461 kts | 260° |
| 2026-04-24 23:11 | 41.10869 | 0.46794 | 35168 ft | 461 kts | 260° |
| 2026-04-24 23:12 | 41.09801 | 0.38482 | 35164 ft | 460 kts | 259° |
| 2026-04-24 23:12 | 41.08713 | 0.30128 | 35160 ft | 460 kts | 259° |
| 2026-04-24 23:13 | 41.07617 | 0.21779 | 35159 ft | 460 kts | 259° |
| 2026-04-24 23:13 | 41.06519 | 0.13416 | 35161 ft | 460 kts | 259° |
| 2026-04-24 23:14 | 41.05418 | 0.05058 | 35160 ft | 460 kts | 259° |
| 2026-04-24 23:14 | 41.04312 | -0.03285 | 35158 ft | 460 kts | 259° |
| 2026-04-24 23:15 | 41.03201 | -0.11619 | 35165 ft | 459 kts | 258° |
| 2026-04-24 23:15 | 41.02083 | -0.19934 | 35170 ft | 458 kts | 258° |
| 2026-04-24 23:16 | 41.00908 | -0.28214 | 35166 ft | 457 kts | 253° |
| 2026-04-24 23:16 | 40.98862 | -0.36150 | 35160 ft | 455 kts | 249° |
| 2026-04-24 23:17 | 40.96721 | -0.44041 | 35165 ft | 456 kts | 248° |
| 2026-04-24 23:17 | 40.94577 | -0.51925 | 35164 ft | 455 kts | 248° |
| 2026-04-24 23:18 | 40.92440 | -0.59802 | 35167 ft | 455 kts | 248° |
| 2026-04-24 23:18 | 40.90296 | -0.67671 | 35168 ft | 455 kts | 248° |
| 2026-04-24 23:19 | 40.88139 | -0.75537 | 35167 ft | 455 kts | 248° |
| 2026-04-24 23:19 | 40.85977 | -0.83387 | 35173 ft | 455 kts | 248° |
| 2026-04-24 23:20 | 40.83813 | -0.91238 | 35176 ft | 455 kts | 248° |
| 2026-04-24 23:20 | 40.81639 | -0.99087 | 35180 ft | 455 kts | 248° |
| 2026-04-24 23:21 | 40.79463 | -1.06924 | 35181 ft | 455 kts | 248° |
| 2026-04-24 23:21 | 40.77280 | -1.14749 | 35188 ft | 453 kts | 248° |
| 2026-04-24 23:21 | 40.76191 | -1.18634 | 35393 ft | 451 kts | 248° |
| 2026-04-24 23:22 | 40.75106 | -1.22506 | 35628 ft | 449 kts | 248° |
| 2026-04-24 23:22 | 40.74022 | -1.26368 | 35798 ft | 449 kts | 248° |
| 2026-04-24 23:22 | 40.72937 | -1.30224 | 35952 ft | 449 kts | 248° |
| 2026-04-24 23:22 | 40.71854 | -1.34078 | 36103 ft | 449 kts | 248° |
| 2026-04-24 23:23 | 40.70771 | -1.37933 | 36248 ft | 449 kts | 248° |
| 2026-04-24 23:23 | 40.69687 | -1.41786 | 36381 ft | 449 kts | 248° |
| 2026-04-24 23:23 | 40.68600 | -1.45643 | 36517 ft | 449 kts | 248° |
| 2026-04-24 23:23 | 40.67513 | -1.49493 | 36699 ft | 447 kts | 248° |
| 2026-04-24 23:24 | 40.66431 | -1.53316 | 36961 ft | 444 kts | 247° |
| 2026-04-24 23:24 | 40.65354 | -1.57113 | 37136 ft | 442 kts | 247° |
| 2026-04-24 23:24 | 40.64278 | -1.60898 | 37175 ft | 441 kts | 247° |
| 2026-04-24 23:25 | 40.62129 | -1.68453 | 37173 ft | 440 kts | 247° |
| 2026-04-24 23:25 | 40.59979 | -1.75996 | 37174 ft | 440 kts | 247° |
| 2026-04-24 23:26 | 40.57825 | -1.83536 | 37176 ft | 440 kts | 247° |
| 2026-04-24 23:26 | 40.55659 | -1.91067 | 37175 ft | 440 kts | 247° |
| 2026-04-24 23:27 | 40.53494 | -1.98596 | 37180 ft | 440 kts | 247° |
| 2026-04-24 23:27 | 40.51314 | -2.06123 | 37174 ft | 441 kts | 246° |
| 2026-04-24 23:28 | 40.49132 | -2.13647 | 37179 ft | 440 kts | 246° |
| 2026-04-24 23:28 | 40.46955 | -2.21168 | 37182 ft | 441 kts | 247° |
| 2026-04-24 23:29 | 40.44766 | -2.28694 | 37175 ft | 441 kts | 246° |
| 2026-04-24 23:29 | 40.42567 | -2.36206 | 37181 ft | 441 kts | 246° |
| 2026-04-24 23:30 | 40.40364 | -2.43717 | 37178 ft | 441 kts | 246° |
| 2026-04-24 23:30 | 40.38144 | -2.51260 | 37155 ft | 445 kts | 246° |
| 2026-04-24 23:31 | 40.36222 | -2.58988 | 37158 ft | 447 kts | 252° |
| 2026-04-24 23:31 | 40.34531 | -2.66835 | 37147 ft | 447 kts | 251° |
| 2026-04-24 23:32 | 40.32823 | -2.74679 | 37147 ft | 448 kts | 251° |
| 2026-04-24 23:32 | 40.31115 | -2.82526 | 37150 ft | 448 kts | 251° |
| 2026-04-24 23:33 | 40.29409 | -2.90327 | 37150 ft | 449 kts | 251° |
| 2026-04-24 23:33 | 40.27683 | -2.98184 | 37153 ft | 449 kts | 251° |
| 2026-04-24 23:34 | 40.25957 | -3.06042 | 37157 ft | 449 kts | 251° |
| 2026-04-24 23:34 | 40.24503 | -3.12625 | 37157 ft | 449 kts | 251° |
| 2026-04-24 23:35 | 40.22752 | -3.20474 | 37157 ft | 450 kts | 251° |
| 2026-04-24 23:35 | 40.20996 | -3.28332 | 37155 ft | 450 kts | 251° |
| 2026-04-24 23:36 | 40.19243 | -3.36193 | 37153 ft | 450 kts | 251° |
| 2026-04-24 23:36 | 40.17497 | -3.44003 | 37151 ft | 451 kts | 251° |
| 2026-04-24 23:37 | 40.15726 | -3.51922 | 37150 ft | 451 kts | 251° |
| 2026-04-24 23:37 | 40.13068 | -3.63709 | 37148 ft | 451 kts | 251° |
| 2026-04-24 23:38 | 40.11276 | -3.71568 | 37148 ft | 452 kts | 251° |
| 2026-04-24 23:38 | 40.09488 | -3.79435 | 37148 ft | 452 kts | 251° |
| 2026-04-24 23:39 | 40.07693 | -3.87306 | 37152 ft | 452 kts | 250° |
| 2026-04-24 23:39 | 40.05886 | -3.95176 | 37154 ft | 452 kts | 250° |
| 2026-04-24 23:40 | 40.04073 | -4.03048 | 37156 ft | 453 kts | 250° |
| 2026-04-24 23:40 | 40.02256 | -4.10924 | 37154 ft | 454 kts | 250° |
| 2026-04-24 23:41 | 40.00436 | -4.18794 | 37159 ft | 454 kts | 250° |
| 2026-04-24 23:41 | 39.98603 | -4.26670 | 37167 ft | 454 kts | 250° |
| 2026-04-24 23:42 | 39.96760 | -4.34534 | 37168 ft | 453 kts | 250° |
| 2026-04-24 23:42 | 39.95076 | -4.42466 | 37164 ft | 455 kts | 253° |
| 2026-04-24 23:43 | 39.93524 | -4.50456 | 37159 ft | 455 kts | 253° |
| 2026-04-24 23:43 | 39.91945 | -4.58438 | 37163 ft | 455 kts | 252° |
| 2026-04-24 23:44 | 39.90318 | -4.66404 | 37164 ft | 455 kts | 252° |
| 2026-04-24 23:44 | 39.88671 | -4.74360 | 37162 ft | 455 kts | 252° |
| 2026-04-24 23:45 | 39.87025 | -4.82322 | 37161 ft | 455 kts | 252° |
| 2026-04-24 23:45 | 39.85381 | -4.90284 | 37155 ft | 456 kts | 252° |
| 2026-04-24 23:46 | 39.83720 | -4.98249 | 37153 ft | 456 kts | 252° |
| 2026-04-24 23:46 | 39.82061 | -5.06218 | 37152 ft | 457 kts | 252° |
| 2026-04-24 23:47 | 39.80393 | -5.14189 | 37153 ft | 457 kts | 252° |
| 2026-04-24 23:47 | 39.78723 | -5.22159 | 37151 ft | 457 kts | 252° |
| 2026-04-24 23:48 | 39.77044 | -5.30079 | 37149 ft | 457 kts | 252° |
| 2026-04-24 23:48 | 39.75352 | -5.38048 | 37144 ft | 458 kts | 252° |
| 2026-04-24 23:49 | 39.73664 | -5.46021 | 37147 ft | 458 kts | 252° |
| 2026-04-24 23:49 | 39.71966 | -5.53994 | 37150 ft | 458 kts | 252° |
| 2026-04-24 23:50 | 39.70258 | -5.61972 | 37146 ft | 458 kts | 252° |
| 2026-04-24 23:50 | 39.68546 | -5.69939 | 37142 ft | 458 kts | 252° |
| 2026-04-24 23:51 | 39.66837 | -5.77887 | 37140 ft | 457 kts | 252° |
| 2026-04-24 23:51 | 39.65115 | -5.85832 | 37138 ft | 457 kts | 252° |
| 2026-04-24 23:52 | 39.63393 | -5.93772 | 37134 ft | 457 kts | 252° |
| 2026-04-24 23:52 | 39.61665 | -6.01696 | 37129 ft | 456 kts | 252° |
| 2026-04-24 23:53 | 39.59932 | -6.09607 | 37127 ft | 456 kts | 252° |
| 2026-04-24 23:53 | 39.58198 | -6.17515 | 37121 ft | 456 kts | 252° |
| 2026-04-24 23:54 | 39.56451 | -6.25427 | 37119 ft | 457 kts | 252° |
| 2026-04-24 23:54 | 39.54701 | -6.33332 | 37116 ft | 457 kts | 252° |
| 2026-04-24 23:55 | 39.52897 | -6.41222 | 37110 ft | 456 kts | 248° |
| 2026-04-24 23:55 | 39.49918 | -6.48408 | 37113 ft | 453 kts | 234° |
| 2026-04-24 23:56 | 39.46407 | -6.55180 | 37104 ft | 453 kts | 235° |
| 2026-04-24 23:56 | 39.42895 | -6.61965 | 37102 ft | 454 kts | 235° |
| 2026-04-24 23:57 | 39.39380 | -6.68749 | 37100 ft | 454 kts | 235° |
| 2026-04-24 23:57 | 39.35865 | -6.75530 | 37100 ft | 454 kts | 235° |
| 2026-04-24 23:58 | 39.32337 | -6.82306 | 37103 ft | 455 kts | 235° |
| 2026-04-24 23:58 | 39.28805 | -6.89063 | 37080 ft | 454 kts | 235° |
| 2026-04-24 23:59 | 39.25272 | -6.95828 | 37084 ft | 455 kts | 235° |
| 2026-04-24 23:59 | 39.21729 | -7.02595 | 37094 ft | 456 kts | 236° |
| 2026-04-25 00:00 | 39.18177 | -7.09364 | 37102 ft | 456 kts | 236° |
| 2026-04-25 00:00 | 39.14612 | -7.16123 | 37089 ft | 456 kts | 236° |
| 2026-04-25 00:01 | 39.11040 | -7.22892 | 37092 ft | 457 kts | 236° |
| 2026-04-25 00:01 | 39.07469 | -7.29655 | 37102 ft | 456 kts | 236° |
| 2026-04-25 00:02 | 39.03914 | -7.36378 | 37110 ft | 454 kts | 236° |
| 2026-04-25 00:02 | 39.00358 | -7.43074 | 37112 ft | 454 kts | 237° |
| 2026-04-25 00:03 | 38.96793 | -7.49783 | 37083 ft | 455 kts | 237° |
| 2026-04-25 00:03 | 38.93208 | -7.56512 | 37095 ft | 457 kts | 237° |
| 2026-04-25 00:04 | 38.89613 | -7.63246 | 37106 ft | 458 kts | 237° |
| 2026-04-25 00:04 | 38.86033 | -7.69939 | 37100 ft | 458 kts | 237° |
| 2026-04-25 00:05 | 38.82420 | -7.76684 | 37106 ft | 459 kts | 237° |
| 2026-04-25 00:05 | 38.78775 | -7.83464 | 37111 ft | 459 kts | 237° |
| 2026-04-25 00:06 | 38.75146 | -7.90197 | 37107 ft | 459 kts | 237° |
| 2026-04-25 00:06 | 38.71537 | -7.96890 | 37114 ft | 460 kts | 237° |
| 2026-04-25 00:07 | 38.67902 | -8.03623 | 37119 ft | 460 kts | 238° |
| 2026-04-25 00:07 | 38.64259 | -8.10362 | 37124 ft | 460 kts | 238° |
| 2026-04-25 00:08 | 38.60607 | -8.17091 | 37132 ft | 461 kts | 238° |
| 2026-04-25 00:08 | 38.56937 | -8.23812 | 37142 ft | 461 kts | 238° |
| 2026-04-25 00:09 | 38.53267 | -8.30533 | 37142 ft | 461 kts | 238° |
| 2026-04-25 00:09 | 38.49596 | -8.37257 | 37148 ft | 462 kts | 238° |
| 2026-04-25 00:10 | 38.45915 | -8.43982 | 37158 ft | 463 kts | 238° |
| 2026-04-25 00:10 | 38.42227 | -8.50716 | 37157 ft | 463 kts | 238° |
| 2026-04-25 00:11 | 38.39135 | -8.56345 | 37161 ft | 463 kts | 238° |
| 2026-04-25 00:11 | 38.34829 | -8.64149 | 37167 ft | 463 kts | 238° |
| 2026-04-25 00:12 | 38.31124 | -8.70855 | 37162 ft | 463 kts | 238° |
| 2026-04-25 00:12 | 38.27422 | -8.77556 | 37170 ft | 463 kts | 238° |
| 2026-04-25 00:13 | 38.23723 | -8.84247 | 37177 ft | 461 kts | 238° |
| 2026-04-25 00:13 | 38.20020 | -8.90915 | 37174 ft | 462 kts | 238° |
| 2026-04-25 00:14 | 38.16309 | -8.97582 | 37172 ft | 462 kts | 238° |
| 2026-04-25 00:14 | 38.12597 | -9.04243 | 37180 ft | 462 kts | 238° |
| 2026-04-25 00:15 | 38.08878 | -9.10896 | 37174 ft | 462 kts | 238° |
| 2026-04-25 00:15 | 38.05156 | -9.17535 | 37189 ft | 462 kts | 238° |
| 2026-04-25 00:16 | 38.01430 | -9.24172 | 37193 ft | 462 kts | 238° |
| 2026-04-25 00:16 | 37.97709 | -9.30801 | 37175 ft | 462 kts | 239° |
| 2026-04-25 00:17 | 37.94586 | -9.36350 | 37178 ft | 462 kts | 239° |
| 2026-04-25 00:17 | 37.90849 | -9.42965 | 37182 ft | 461 kts | 239° |
| 2026-04-25 00:18 | 37.87134 | -9.49526 | 37177 ft | 461 kts | 239° |
| 2026-04-25 00:18 | 37.83371 | -9.56165 | 37175 ft | 461 kts | 239° |
| 2026-04-25 00:19 | 37.79642 | -9.62751 | 37167 ft | 460 kts | 239° |
| 2026-04-25 00:19 | 37.75934 | -9.69274 | 37158 ft | 459 kts | 239° |
| 2026-04-25 00:20 | 37.72195 | -9.75828 | 37156 ft | 460 kts | 239° |
| 2026-04-25 00:20 | 37.68458 | -9.82379 | 37159 ft | 460 kts | 239° |
| 2026-04-25 00:21 | 37.64720 | -9.88928 | 37159 ft | 459 kts | 239° |
| 2026-04-25 00:21 | 37.60975 | -9.95470 | 37157 ft | 460 kts | 239° |
| 2026-04-25 00:22 | 37.57213 | -10.02007 | 37160 ft | 460 kts | 239° |
| 2026-04-25 00:22 | 37.53461 | -10.08520 | 37158 ft | 460 kts | 239° |
| 2026-04-25 00:23 | 37.49699 | -10.15033 | 37163 ft | 459 kts | 239° |
| 2026-04-25 00:23 | 37.45940 | -10.21532 | 37170 ft | 459 kts | 239° |
| 2026-04-25 00:24 | 37.42185 | -10.28031 | 37177 ft | 459 kts | 239° |
| 2026-04-25 00:24 | 37.38427 | -10.34508 | 37174 ft | 458 kts | 239° |
| 2026-04-25 00:25 | 37.34674 | -10.40978 | 37171 ft | 457 kts | 239° |
| 2026-04-25 00:25 | 37.30924 | -10.47418 | 37170 ft | 456 kts | 239° |
| 2026-04-25 00:26 | 37.27169 | -10.53846 | 37175 ft | 456 kts | 239° |
| 2026-04-25 00:26 | 37.23427 | -10.60250 | 37167 ft | 455 kts | 239° |
| 2026-04-25 00:27 | 37.19689 | -10.66643 | 37166 ft | 454 kts | 239° |
| 2026-04-25 00:27 | 37.15944 | -10.73025 | 37170 ft | 454 kts | 239° |
| 2026-04-25 00:28 | 37.12198 | -10.79397 | 37172 ft | 453 kts | 239° |
| 2026-04-25 00:28 | 37.08453 | -10.85747 | 37173 ft | 453 kts | 239° |
| 2026-04-25 00:29 | 37.04715 | -10.92086 | 37170 ft | 452 kts | 239° |
| 2026-04-25 00:29 | 37.00977 | -10.98424 | 37176 ft | 452 kts | 239° |
| 2026-04-25 00:30 | 36.97235 | -11.04746 | 37184 ft | 451 kts | 239° |
| 2026-04-25 00:30 | 36.93493 | -11.11037 | 37183 ft | 450 kts | 239° |
| 2026-04-25 00:31 | 36.89762 | -11.17319 | 37187 ft | 450 kts | 239° |
| 2026-04-25 00:31 | 36.86029 | -11.23594 | 37180 ft | 450 kts | 239° |
| 2026-04-25 00:32 | 36.82293 | -11.29858 | 37181 ft | 450 kts | 239° |
| 2026-04-25 00:32 | 36.78551 | -11.36105 | 37183 ft | 449 kts | 239° |
| 2026-04-25 00:33 | 36.74812 | -11.42339 | 37183 ft | 449 kts | 239° |
| 2026-04-25 00:33 | 36.71077 | -11.48568 | 37178 ft | 448 kts | 239° |
| 2026-04-25 00:34 | 36.67345 | -11.54773 | 37184 ft | 447 kts | 239° |
| 2026-04-25 00:34 | 36.63614 | -11.60962 | 37181 ft | 447 kts | 239° |
| 2026-04-25 00:35 | 36.59914 | -11.67105 | 37186 ft | 446 kts | 239° |
| 2026-04-25 00:35 | 36.56191 | -11.73279 | 37176 ft | 446 kts | 239° |
| 2026-04-25 00:36 | 36.52461 | -11.79428 | 37179 ft | 445 kts | 238° |
| 2026-04-25 00:36 | 36.48729 | -11.85561 | 37179 ft | 444 kts | 238° |
| 2026-04-25 00:37 | 36.45011 | -11.91688 | 37176 ft | 443 kts | 238° |
| 2026-04-25 00:37 | 36.41296 | -11.97792 | 37175 ft | 443 kts | 238° |
| 2026-04-25 00:38 | 36.37577 | -12.03880 | 37179 ft | 442 kts | 238° |
| 2026-04-25 00:38 | 36.33871 | -12.09956 | 37177 ft | 441 kts | 238° |
| 2026-04-25 00:39 | 36.30162 | -12.16024 | 37169 ft | 441 kts | 238° |
| 2026-04-25 00:39 | 36.26446 | -12.22078 | 37167 ft | 441 kts | 238° |
| 2026-04-25 00:40 | 36.22730 | -12.28121 | 37175 ft | 441 kts | 238° |
| 2026-04-25 00:40 | 36.19014 | -12.34160 | 37171 ft | 441 kts | 238° |
| 2026-04-25 00:41 | 36.15297 | -12.40194 | 37167 ft | 441 kts | 238° |
| 2026-04-25 00:41 | 36.11578 | -12.46225 | 37169 ft | 441 kts | 238° |
| 2026-04-25 00:42 | 36.07849 | -12.52248 | 37168 ft | 441 kts | 238° |
| 2026-04-25 00:42 | 36.04037 | -12.58200 | 37161 ft | 443 kts | 234° |
| 2026-04-25 00:43 | 35.99891 | -12.63859 | 37163 ft | 445 kts | 232° |
| 2026-04-25 00:43 | 35.95622 | -12.69386 | 37157 ft | 444 kts | 232° |
| 2026-04-25 00:44 | 35.91406 | -12.74955 | 37161 ft | 443 kts | 232° |
| 2026-04-25 00:44 | 35.87242 | -12.80562 | 37166 ft | 443 kts | 232° |
| 2026-04-25 00:45 | 35.83088 | -12.86169 | 37161 ft | 443 kts | 232° |
| 2026-04-25 00:45 | 35.78930 | -12.91766 | 37168 ft | 443 kts | 232° |
| 2026-04-25 00:46 | 35.74769 | -12.97340 | 37166 ft | 442 kts | 232° |
| 2026-04-25 00:47 | 35.68509 | -13.05670 | 37162 ft | 441 kts | 231° |
| 2026-04-25 00:47 | 35.64344 | -13.11214 | 37165 ft | 441 kts | 231° |
| 2026-04-25 00:48 | 35.60172 | -13.16757 | 37167 ft | 442 kts | 231° |
| 2026-04-25 00:48 | 35.56001 | -13.22295 | 37166 ft | 441 kts | 231° |
| 2026-04-25 00:49 | 35.51834 | -13.27825 | 37162 ft | 441 kts | 231° |
| 2026-04-25 00:49 | 35.47665 | -13.33339 | 37159 ft | 440 kts | 231° |
| 2026-04-25 00:50 | 35.43504 | -13.38852 | 37164 ft | 440 kts | 231° |
| 2026-04-25 00:50 | 35.39336 | -13.44354 | 37160 ft | 440 kts | 231° |
| 2026-04-25 00:51 | 35.35161 | -13.49843 | 37165 ft | 440 kts | 231° |
| 2026-04-25 00:51 | 35.30982 | -13.55328 | 37166 ft | 440 kts | 231° |
| 2026-04-25 00:52 | 35.26803 | -13.60815 | 37172 ft | 441 kts | 231° |
| 2026-04-25 00:52 | 35.22620 | -13.66307 | 37169 ft | 441 kts | 231° |
| 2026-04-25 00:53 | 35.18431 | -13.71785 | 37175 ft | 441 kts | 230° |
| 2026-04-25 00:53 | 35.14236 | -13.77257 | 37176 ft | 441 kts | 230° |
| 2026-04-25 00:54 | 35.10041 | -13.82725 | 37171 ft | 441 kts | 230° |
| 2026-04-25 00:54 | 35.05848 | -13.88184 | 37179 ft | 441 kts | 230° |
| 2026-04-25 00:55 | 35.01657 | -13.93635 | 37177 ft | 440 kts | 230° |
| 2026-04-25 00:55 | 34.97469 | -13.99074 | 37168 ft | 440 kts | 230° |
| 2026-04-25 00:56 | 34.93277 | -14.04500 | 37175 ft | 439 kts | 230° |
| 2026-04-25 00:56 | 34.89086 | -14.09922 | 37175 ft | 439 kts | 230° |
| 2026-04-25 00:57 | 34.84902 | -14.15324 | 37173 ft | 438 kts | 230° |
| 2026-04-25 00:57 | 34.80749 | -14.20691 | 37179 ft | 438 kts | 230° |
| 2026-04-25 00:58 | 34.76536 | -14.26107 | 37178 ft | 438 kts | 229° |
| 2026-04-25 00:58 | 34.72380 | -14.31441 | 37183 ft | 437 kts | 229° |
| 2026-04-25 00:59 | 34.68204 | -14.36805 | 37174 ft | 437 kts | 229° |
| 2026-04-25 00:59 | 34.64017 | -14.42166 | 37173 ft | 437 kts | 229° |
| 2026-04-25 01:00 | 34.59844 | -14.47513 | 37168 ft | 437 kts | 229° |
| 2026-04-25 01:00 | 34.55656 | -14.52865 | 37167 ft | 437 kts | 229° |
| 2026-04-25 01:01 | 34.52146 | -14.57342 | 37171 ft | 437 kts | 229° |
| 2026-04-25 01:01 | 34.47949 | -14.62680 | 37167 ft | 437 kts | 229° |
| 2026-04-25 01:02 | 34.43755 | -14.68013 | 37180 ft | 437 kts | 229° |
| 2026-04-25 01:02 | 34.39556 | -14.73346 | 37177 ft | 437 kts | 229° |
| 2026-04-25 01:03 | 34.35357 | -14.78675 | 37181 ft | 438 kts | 229° |
| 2026-04-25 01:03 | 34.31177 | -14.83959 | 37193 ft | 438 kts | 229° |
| 2026-04-25 01:04 | 34.26963 | -14.89278 | 37195 ft | 438 kts | 229° |
| 2026-04-25 01:04 | 34.22759 | -14.94598 | 37197 ft | 437 kts | 229° |
| 2026-04-25 01:05 | 34.18557 | -14.99897 | 37209 ft | 436 kts | 229° |
| 2026-04-25 01:05 | 34.14417 | -15.05098 | 36846 ft | 425 kts | 229° |
| 2026-04-25 01:05 | 34.12373 | -15.07669 | 36131 ft | 424 kts | 228° |
| 2026-04-25 01:06 | 34.10333 | -15.10232 | 35527 ft | 424 kts | 228° |
| 2026-04-25 01:06 | 34.08275 | -15.12813 | 35025 ft | 430 kts | 228° |
| 2026-04-25 01:06 | 34.06189 | -15.15428 | 34713 ft | 435 kts | 228° |
| 2026-04-25 01:06 | 34.04082 | -15.18065 | 34468 ft | 438 kts | 227° |
| 2026-04-25 01:07 | 34.01961 | -15.20720 | 34229 ft | 440 kts | 227° |
| 2026-04-25 01:07 | 33.99834 | -15.23383 | 33967 ft | 441 kts | 227° |
| 2026-04-25 01:07 | 33.97701 | -15.26044 | 33717 ft | 442 kts | 227° |
| 2026-04-25 01:07 | 33.95562 | -15.28712 | 33468 ft | 443 kts | 227° |
| 2026-04-25 01:08 | 33.93418 | -15.31383 | 33218 ft | 444 kts | 227° |
| 2026-04-25 01:08 | 33.91268 | -15.34062 | 32962 ft | 445 kts | 227° |
| 2026-04-25 01:08 | 33.89116 | -15.36741 | 32718 ft | 446 kts | 227° |
| 2026-04-25 01:08 | 33.86962 | -15.39421 | 32467 ft | 446 kts | 227° |
| 2026-04-25 01:09 | 33.84804 | -15.42106 | 32217 ft | 447 kts | 227° |
| 2026-04-25 01:09 | 33.82641 | -15.44793 | 31730 ft | 446 kts | 227° |
| 2026-04-25 01:09 | 33.80472 | -15.47489 | 30679 ft | 450 kts | 227° |
| 2026-04-25 01:09 | 33.78294 | -15.50197 | 29656 ft | 451 kts | 226° |
| 2026-04-25 01:10 | 33.76102 | -15.52920 | 28515 ft | 455 kts | 226° |
| 2026-04-25 01:10 | 33.73901 | -15.55653 | 27455 ft | 455 kts | 226° |
| 2026-04-25 01:10 | 33.71690 | -15.58393 | 26504 ft | 456 kts | 226° |
| 2026-04-25 01:10 | 33.69468 | -15.61138 | 25979 ft | 461 kts | 226° |
| 2026-04-25 01:11 | 33.67232 | -15.63904 | 25451 ft | 459 kts | 226° |
| 2026-04-25 01:11 | 33.65038 | -15.66617 | 24924 ft | 447 kts | 226° |
| 2026-04-25 01:11 | 33.62899 | -15.69260 | 24412 ft | 436 kts | 226° |
| 2026-04-25 01:11 | 33.60812 | -15.71835 | 23913 ft | 425 kts | 226° |
| 2026-04-25 01:12 | 33.58778 | -15.74341 | 23410 ft | 415 kts | 226° |
| 2026-04-25 01:12 | 33.56785 | -15.76790 | 22897 ft | 406 kts | 226° |
| 2026-04-25 01:12 | 33.54832 | -15.79183 | 22408 ft | 396 kts | 226° |
| 2026-04-25 01:12 | 33.52905 | -15.81488 | 21908 ft | 387 kts | 225° |
| 2026-04-25 01:13 | 33.51001 | -15.83720 | 21407 ft | 380 kts | 225° |
| 2026-04-25 01:13 | 33.49114 | -15.85910 | 20906 ft | 376 kts | 225° |
| 2026-04-25 01:13 | 33.47238 | -15.88083 | 20407 ft | 374 kts | 225° |
| 2026-04-25 01:13 | 33.45373 | -15.90245 | 19905 ft | 372 kts | 225° |
| 2026-04-25 01:14 | 33.43523 | -15.92394 | 19405 ft | 370 kts | 225° |
| 2026-04-25 01:14 | 33.41684 | -15.94534 | 18904 ft | 368 kts | 225° |
| 2026-04-25 01:14 | 33.39857 | -15.96669 | 18403 ft | 366 kts | 225° |
| 2026-04-25 01:14 | 33.38066 | -15.98768 | 17905 ft | 364 kts | 225° |
| 2026-04-25 01:15 | 33.36239 | -16.00906 | 17403 ft | 362 kts | 225° |
| 2026-04-25 01:15 | 33.34444 | -16.03003 | 16901 ft | 359 kts | 225° |
| 2026-04-25 01:15 | 33.32666 | -16.05081 | 16401 ft | 356 kts | 225° |
| 2026-04-25 01:15 | 33.30894 | -16.07146 | 15895 ft | 354 kts | 225° |
| 2026-04-25 01:16 | 33.29137 | -16.09187 | 15393 ft | 351 kts | 225° |
| 2026-04-25 01:16 | 33.27416 | -16.11188 | 14902 ft | 349 kts | 225° |
| 2026-04-25 01:16 | 33.25677 | -16.13206 | 14398 ft | 347 kts | 225° |
| 2026-04-25 01:16 | 33.23950 | -16.15212 | 13899 ft | 345 kts | 225° |
| 2026-04-25 01:17 | 33.22239 | -16.17204 | 13397 ft | 343 kts | 225° |
| 2026-04-25 01:17 | 33.20532 | -16.19189 | 12897 ft | 341 kts | 225° |
| 2026-04-25 01:17 | 33.18840 | -16.21155 | 12390 ft | 339 kts | 225° |
| 2026-04-25 01:17 | 33.17156 | -16.23108 | 11897 ft | 336 kts | 225° |
| 2026-04-25 01:18 | 33.15480 | -16.25048 | 11391 ft | 334 kts | 225° |
| 2026-04-25 01:18 | 33.13816 | -16.26974 | 10890 ft | 332 kts | 225° |
| 2026-04-25 01:18 | 33.12143 | -16.28910 | 10383 ft | 330 kts | 225° |
| 2026-04-25 01:18 | 33.10522 | -16.30785 | 9878 ft | 327 kts | 225° |
| 2026-04-25 01:19 | 33.08899 | -16.32660 | 9388 ft | 321 kts | 225° |
| 2026-04-25 01:19 | 33.07326 | -16.34475 | 8922 ft | 299 kts | 225° |
| 2026-04-25 01:19 | 33.05859 | -16.36171 | 8473 ft | 291 kts | 225° |
| 2026-04-25 01:19 | 33.04416 | -16.37839 | 8026 ft | 287 kts | 225° |
| 2026-04-25 01:20 | 33.02986 | -16.39490 | 7578 ft | 285 kts | 225° |
| 2026-04-25 01:20 | 33.01588 | -16.41105 | 7124 ft | 280 kts | 225° |
| 2026-04-25 01:20 | 33.00212 | -16.42694 | 6670 ft | 264 kts | 225° |
| 2026-04-25 01:20 | 32.98918 | -16.44186 | 6249 ft | 258 kts | 225° |
| 2026-04-25 01:21 | 32.97644 | -16.45655 | 5829 ft | 259 kts | 224° |
| 2026-04-25 01:21 | 32.96350 | -16.47147 | 5393 ft | 259 kts | 224° |
| 2026-04-25 01:21 | 32.95054 | -16.48637 | 4979 ft | 259 kts | 224° |
| 2026-04-25 01:21 | 32.93755 | -16.50130 | 4561 ft | 260 kts | 225° |
| 2026-04-25 01:22 | 32.92451 | -16.51623 | 4134 ft | 260 kts | 224° |
| 2026-04-25 01:22 | 32.91145 | -16.53051 | 4020 ft | 251 kts | 223° |
| 2026-04-25 01:22 | 32.89848 | -16.54431 | 3884 ft | 250 kts | 222° |
| 2026-04-25 01:22 | 32.88550 | -16.55802 | 3528 ft | 249 kts | 222° |
| 2026-04-25 01:23 | 32.87255 | -16.57171 | 3179 ft | 247 kts | 223° |
| 2026-04-25 01:23 | 32.85979 | -16.58525 | 3019 ft | 247 kts | 222° |
| 2026-04-25 01:23 | 32.84692 | -16.59893 | 3017 ft | 249 kts | 223° |
| 2026-04-25 01:23 | 32.83401 | -16.61268 | 3018 ft | 249 kts | 223° |
| 2026-04-25 01:24 | 32.82062 | -16.62581 | 3017 ft | 250 kts | 214° |
| 2026-04-25 01:24 | 32.80535 | -16.63556 | 3021 ft | 250 kts | 201° |
| 2026-04-25 01:24 | 32.78899 | -16.64235 | 2925 ft | 245 kts | 198° |
| 2026-04-25 01:24 | 32.77337 | -16.64872 | 2844 ft | 229 kts | 198° |
| 2026-04-25 01:25 | 32.75861 | -16.65473 | 2742 ft | 221 kts | 197° |
| 2026-04-25 01:25 | 32.74423 | -16.66058 | 2640 ft | 217 kts | 197° |
| 2026-04-25 01:25 | 32.73008 | -16.66629 | 2532 ft | 214 kts | 197° |
| 2026-04-25 01:25 | 32.71604 | -16.67194 | 2446 ft | 211 kts | 197° |
| 2026-04-25 01:26 | 32.70232 | -16.67748 | 2342 ft | 203 kts | 196° |
| 2026-04-25 01:26 | 32.68935 | -16.68272 | 2240 ft | 192 kts | 197° |
| 2026-04-25 01:26 | 32.67693 | -16.68776 | 2154 ft | 184 kts | 197° |
| 2026-04-25 01:26 | 32.66531 | -16.69249 | 2080 ft | 170 kts | 196° |
| 2026-04-25 01:27 | 32.65435 | -16.69696 | 2005 ft | 164 kts | 197° |
| 2026-04-25 01:27 | 32.64369 | -16.70125 | 2034 ft | 161 kts | 196° |
| 2026-04-25 01:27 | 32.63335 | -16.70651 | 2008 ft | 163 kts | 207° |
| 2026-04-25 01:28 | 32.61682 | -16.72473 | 2009 ft | 166 kts | 233° |
| 2026-04-25 01:28 | 32.61154 | -16.73690 | 2010 ft | 167 kts | 247° |
| 2026-04-25 01:28 | 32.60876 | -16.75026 | 2013 ft | 168 kts | 260° |
| 2026-04-25 01:28 | 32.60866 | -16.76418 | 2011 ft | 169 kts | 274° |
| 2026-04-25 01:29 | 32.61131 | -16.77788 | 2011 ft | 172 kts | 288° |
| 2026-04-25 01:29 | 32.61740 | -16.79005 | 1779 ft | 171 kts | 309° |
| 2026-04-25 01:29 | 32.62662 | -16.79875 | 1532 ft | 169 kts | 329° |
| 2026-04-25 01:29 | 32.63733 | -16.80305 | 1309 ft | 156 kts | 349° |
| 2026-04-25 01:30 | 32.64761 | -16.80353 | 1112 ft | 141 kts | 359° |
| 2026-04-25 01:30 | 32.65715 | -16.80352 | 931 ft | 134 kts | 360° |
| 2026-04-25 01:30 | 32.66640 | -16.80288 | 728 ft | 134 kts | 10° |
| 2026-04-25 01:30 | 32.67516 | -16.79900 | 593 ft | 138 kts | 27° |
| 2026-04-25 01:31 | 32.68269 | -16.79220 | 396 ft | 136 kts | 45° |
| 2026-04-25 01:31 | 32.68931 | -16.78438 | 213 ft | 134 kts | 42° |
| 2026-04-25 01:31 | 32.69566 | -16.77706 | 175 ft | 113 kts | 43° |
| 2026-04-25 01:31 | 32.69914 | -16.77298 | 187 ft | 29 kts | 45° |
| 2026-04-25 01:32 | 32.69941 | -16.77194 | 188 ft | 11 kts | 134° |
| 2026-04-25 01:32 | 32.69863 | -16.77179 | 195 ft | 14 kts | 187° |
| 2026-04-25 01:32 | 32.69819 | -16.77202 | 182 ft | 6 kts | 218° |
| 2026-04-25 01:32 | 32.69782 | -16.77247 | 179 ft | 10 kts | 226° |
| 2026-04-25 01:33 | 32.69717 | -16.77327 | 171 ft | 16 kts | 226° |
| 2026-04-25 01:33 | 32.69640 | -16.77422 | 169 ft | 15 kts | 226° |
| 2026-04-25 01:33 | 32.69571 | -16.77507 | 169 ft | 13 kts | 226° |
| 2026-04-25 01:33 | 32.69509 | -16.77584 | 169 ft | 13 kts | 226° |
| 2026-04-25 01:34 | 32.69455 | -16.77651 | 169 ft | 11 kts | 226° |
| 2026-04-25 01:34 | 32.69425 | -16.77688 | 169 ft | 0 kts | 226° |
| 2026-04-25 01:34 | 32.69421 | -16.77693 | 169 ft | 1 kts | 226° |
| 2026-04-25 01:34 | 32.69411 | -16.77701 | 169 ft | 2 kts | 199° |
| 2026-04-25 01:35 | 32.69397 | -16.77698 | 169 ft | 2 kts | 158° |
| 2026-04-25 01:35 | 32.69379 | -16.77683 | 169 ft | 2 kts | 144° |
| 2026-04-25 01:35 | 32.69369 | -16.77673 | 169 ft | 2 kts | 137° |
| 2026-04-25 01:35 | 32.69362 | -16.77665 | 169 ft | 1 kts | 137° |
| 2026-04-25 01:36 | 32.69359 | -16.77662 | 169 ft | 0 kts | 137° |